Time;durP1;ratioP1;P1;durP2;ratioP2;P2;SDS_P1;SDS_P2;PMS_P1;PMS_P2;Temp;Humidity;BMP_temperature;BMP_pressure;BME280_temperature;BME280_humidity;BME280_pressure;Samples;Min_cycle;Max_cycle;Signal;HPM_P1;HPM_P2
2023/07/06 00:02:00;;;;;;;3.05;2.85;;;;;;;16.52;100.00;88085.59;5050370;28;20032;-77
2023/07/06 00:04:26;;;;;;;3.10;2.72;;;;;;;16.49;100.00;88122.66;5048492;28;20379;-76
2023/07/06 00:06:51;;;;;;;3.38;3.08;;;;;;;16.42;100.00;88112.75;5044450;28;20025;-77
2023/07/06 00:09:17;;;;;;;5.65;2.92;;;;;;;16.35;100.00;88118.72;5044509;28;20249;-77
2023/07/06 00:11:47;;;;;;;3.15;2.72;;;;;;;16.33;100.00;88089.94;5054750;28;20025;-77
2023/07/06 00:14:14;;;;;;;3.05;2.90;;;;;;;16.27;100.00;88109.97;5054350;28;20025;-77
2023/07/06 00:16:41;;;;;;;3.25;2.95;;;;;;;16.23;100.00;88087.19;5054873;28;20036;-76
2023/07/06 00:19:08;;;;;;;3.20;2.90;;;;;;;16.09;100.00;88106.34;5046874;28;20014;-76
2023/07/06 00:21:34;;;;;;;3.10;2.85;;;;;;;16.00;100.00;88119.88;5052246;28;20496;-76
2023/07/06 00:24:00;;;;;;;3.30;3.10;;;;;;;15.96;100.00;88122.47;5050532;28;20029;-77
2023/07/06 00:26:25;;;;;;;5.22;3.03;;;;;;;15.93;100.00;88095.94;5051696;28;20069;-77
2023/07/06 00:28:51;;;;;;;3.40;2.70;;;;;;;15.84;100.00;88104.13;5052727;28;20048;-77
2023/07/06 00:31:21;;;;;;;3.42;3.15;;;;;;;15.85;100.00;88098.44;5053160;28;20802;-77
2023/07/06 00:33:50;;;;;;;3.25;3.00;;;;;;;15.88;100.00;87991.00;5041017;28;20383;-77
2023/07/06 00:36:16;;;;;;;5.00;2.65;;;;;;;15.85;100.00;88122.31;5049594;28;20021;-77
2023/07/06 00:38:41;;;;;;;6.00;3.13;;;;;;;15.87;100.00;88178.34;5046394;28;20021;-77
2023/07/06 00:41:07;;;;;;;4.70;3.67;;;;;;;15.78;100.00;88235.34;5049174;28;20027;-77
2023/07/06 00:43:52;;;;;;;3.17;2.97;;;;;;;15.73;100.00;88229.25;5046432;28;20025;-76
2023/07/06 00:46:19;;;;;;;3.15;2.95;;;;;;;15.66;100.00;88276.84;5050569;28;20465;-77
2023/07/06 00:48:48;;;;;;;3.45;3.15;;;;;;;15.68;100.00;88300.31;5052984;28;20405;-76
2023/07/06 00:51:25;;;;;;;3.10;2.80;;;;;;;15.75;100.00;88131.63;5052334;28;20020;-76
2023/07/06 00:53:58;;;;;;;3.10;2.90;;;;;;;15.79;100.00;88182.03;5051083;28;20037;-77
2023/07/06 00:56:27;;;;;;;5.85;3.10;;;;;;;15.76;100.00;88244.44;5041291;28;20099;-77
2023/07/06 00:59:02;;;;;;;4.22;2.70;;;;;;;15.71;100.00;88263.28;5052694;28;20029;-77
2023/07/06 01:01:30;;;;;;;5.25;3.08;;;;;;;15.68;100.00;88306.38;5049800;28;20025;-77
2023/07/06 01:03:56;;;;;;;5.28;3.05;;;;;;;15.68;100.00;88327.56;5047154;28;20025;-76
2023/07/06 01:06:34;;;;;;;3.22;2.92;;;;;;;15.65;100.00;88187.13;5048951;28;20035;-76
2023/07/06 01:09:00;;;;;;;3.90;3.00;;;;;;;15.64;100.00;88363.84;5050416;28;20033;-76
2023/07/06 01:11:28;;;;;;;4.80;3.30;;;;;;;15.61;100.00;88495.06;5044064;28;20033;-77
2023/07/06 01:16:19;;;;;;;3.10;2.90;;;;;;;15.41;100.00;88676.25;5051143;28;20036;-77
2023/07/06 01:19:10;;;;;;;5.18;2.83;;;;;;;15.35;100.00;88964.34;5048458;28;20049;-77
2023/07/06 01:21:48;;;;;;;3.92;3.08;;;;;;;15.34;100.00;89330.91;5047202;28;20074;-77
2023/07/06 01:24:32;;;;;;;3.10;2.90;;;;;;;15.37;100.00;89790.31;5042164;28;20029;-77
2023/07/06 01:27:25;;;;;;;3.63;3.33;;;;;;;15.39;100.00;89804.81;5048049;28;20022;-77
2023/07/06 01:30:03;;;;;;;3.20;3.00;;;;;;;15.34;100.00;89834.09;5046441;28;20036;-76
2023/07/06 01:32:36;;;;;;;3.90;2.90;;;;;;;15.34;100.00;89849.97;5042198;28;20151;-77
2023/07/06 01:35:15;;;;;;;3.50;3.25;;;;;;;15.32;100.00;89878.66;5040162;28;20025;-77
2023/07/06 01:37:43;;;;;;;5.10;3.40;;;;;;;15.33;100.00;89906.69;5049343;28;20025;-77
2023/07/06 01:40:10;;;;;;;3.53;3.22;;;;;;;15.43;100.00;90393.03;5048648;28;20032;-77
2023/07/06 01:42:42;;;;;;;3.33;3.03;;;;;;;15.33;100.00;90492.84;5049168;28;20022;-78
2023/07/06 01:45:16;;;;;;;5.28;3.38;;;;;;;15.23;100.00;90526.72;5053079;28;20029;-77
2023/07/06 01:47:51;;;;;;;4.05;2.80;;;;;;;15.14;100.00;90558.41;5048223;28;20090;-78
2023/07/06 01:50:23;;;;;;;3.90;3.47;;;;;;;15.06;100.00;90582.94;5047827;28;20049;-77
2023/07/06 01:52:57;;;;;;;3.42;3.13;;;;;;;15.08;100.00;90599.31;5047434;28;20092;-77
2023/07/06 01:55:26;;;;;;;3.60;3.00;;;;;;;15.07;100.00;90603.06;5047709;28;20067;-77
2023/07/06 01:58:12;;;;;;;3.33;3.08;;;;;;;15.08;100.00;90604.63;5053200;28;20031;-77
2023/07/06 02:00:44;;;;;;;3.08;2.88;;;;;;;15.09;100.00;90598.25;5060194;28;20056;-77
2023/07/06 02:03:12;;;;;;;3.45;3.15;;;;;;;15.01;100.00;90599.72;5053878;28;20033;-77
2023/07/06 02:05:39;;;;;;;3.30;3.10;;;;;;;14.96;100.00;90591.88;5057780;28;20043;-78
2023/07/06 02:08:07;;;;;;;3.15;2.92;;;;;;;14.94;100.00;90588.72;5055074;28;20040;-77
2023/07/06 02:10:32;;;;;;;4.90;3.38;;;;;;;14.86;100.00;90593.59;5049570;28;20012;-78
2023/07/06 02:12:58;;;;;;;6.28;3.00;;;;;;;14.86;100.00;90577.72;5050023;28;20071;-78
2023/07/06 02:15:24;;;;;;;3.58;3.28;;;;;;;14.86;100.00;90579.59;5050670;28;20025;-77
2023/07/06 02:17:50;;;;;;;3.33;3.13;;;;;;;14.86;100.00;90579.59;5055981;28;20021;-77
2023/07/06 02:20:19;;;;;;;4.82;3.33;;;;;;;14.86;100.00;90569.78;5053460;28;20025;-77
2023/07/06 02:22:45;;;;;;;3.83;3.03;;;;;;;14.85;100.00;90575.38;5054268;28;20036;-77
2023/07/06 02:25:10;;;;;;;4.45;3.60;;;;;;;14.85;100.00;90570.09;5056126;28;20025;-77
2023/07/06 02:27:36;;;;;;;3.65;3.40;;;;;;;14.82;100.00;90555.56;5055828;28;20032;-77
2023/07/06 02:30:05;;;;;;;3.42;3.10;;;;;;;14.84;100.00;90552.66;5051421;28;20029;-77
2023/07/06 02:32:32;;;;;;;3.50;3.30;;;;;;;14.83;100.00;90556.38;5043770;28;20021;-77
2023/07/06 02:34:58;;;;;;;6.10;3.30;;;;;;;14.82;100.00;90533.63;5050801;28;20572;-77
2023/07/06 02:37:23;;;;;;;4.13;3.72;;;;;;;14.83;100.00;90525.38;5048712;28;20421;-77
2023/07/06 02:39:50;;;;;;;4.38;3.45;;;;;;;14.84;100.00;90516.34;5056348;28;20035;-77
2023/07/06 02:42:16;;;;;;;3.65;3.35;;;;;;;14.76;100.00;90532.94;5055990;28;20108;-77
2023/07/06 02:44:43;;;;;;;3.45;3.20;;;;;;;14.72;100.00;90542.53;5053328;28;20115;-77
2023/07/06 02:47:09;;;;;;;3.40;3.10;;;;;;;14.66;100.00;90554.25;5045481;28;20025;-77
2023/07/06 02:49:35;;;;;;;3.42;3.15;;;;;;;14.62;100.00;90551.44;5052345;28;20025;-78
2023/07/06 02:52:00;;;;;;;3.60;3.22;;;;;;;14.60;100.00;90564.94;5055216;28;20039;-78
2023/07/06 02:54:27;;;;;;;3.45;3.20;;;;;;;14.55;100.00;90562.38;5048864;28;20570;-78
2023/07/06 02:57:00;;;;;;;4.50;3.53;;;;;;;14.50;100.00;90553.75;5056195;28;20545;-78
2023/07/06 02:59:27;;;;;;;3.17;2.97;;;;;;;14.52;100.00;90470.38;5059705;28;20074;-78
2023/07/06 03:01:52;;;;;;;3.30;3.10;;;;;;;14.47;100.00;90462.53;5052139;28;20028;-78
2023/07/06 03:04:18;;;;;;;3.95;3.13;;;;;;;14.50;100.00;90446.09;5054564;28;20074;-77
2023/07/06 03:06:45;;;;;;;5.47;3.45;;;;;;;14.51;100.00;90442.38;5045905;28;20391;-77
2023/07/06 03:09:10;;;;;;;4.93;3.40;;;;;;;14.54;100.00;90454.19;5055619;28;20032;-77
2023/07/06 03:11:37;;;;;;;3.88;3.58;;;;;;;14.55;100.00;90471.63;5055970;28;20025;-77
2023/07/06 03:14:05;;;;;;;3.90;3.60;;;;;;;14.46;100.00;90498.00;5050022;28;20518;-77
2023/07/06 03:16:39;;;;;;;3.50;3.20;;;;;;;14.39;100.00;90521.41;5051392;28;20025;-77
2023/07/06 03:19:08;;;;;;;4.07;3.78;;;;;;;14.30;100.00;90532.66;5055922;28;20194;-77
2023/07/06 03:21:34;;;;;;;3.50;3.30;;;;;;;14.24;100.00;90543.63;5054678;28;20025;-77
2023/07/06 03:24:00;;;;;;;3.75;3.45;;;;;;;14.23;100.00;90532.25;5055046;28;20651;-78
2023/07/06 03:26:25;;;;;;;3.92;3.63;;;;;;;14.24;100.00;90525.09;5058421;28;20036;-78
2023/07/06 03:28:51;;;;;;;4.50;3.30;;;;;;;14.28;100.00;90507.59;5055763;28;20025;-77
2023/07/06 03:31:16;;;;;;;4.78;3.90;;;;;;;14.25;100.00;90495.72;5055623;28;20028;-78
2023/07/06 03:33:42;;;;;;;4.45;4.07;;;;;;;14.23;100.00;90492.56;5056104;28;20104;-78
2023/07/06 03:36:07;;;;;;;4.68;4.28;;;;;;;14.22;100.00;90463.81;5055770;28;20029;-77
2023/07/06 03:38:35;;;;;;;4.03;3.67;;;;;;;14.23;100.00;90455.56;5055556;28;20031;-78
2023/07/06 03:41:04;;;;;;;3.85;3.60;;;;;;;14.23;100.00;90442.34;5055540;28;20032;-77
2023/07/06 03:43:30;;;;;;;4.07;3.80;;;;;;;14.23;100.00;90436.28;5056159;28;20047;-77
2023/07/06 03:45:56;;;;;;;4.65;3.67;;;;;;;14.21;100.00;90418.06;5053213;28;20032;-77
2023/07/06 03:48:21;;;;;;;3.60;3.30;;;;;;;14.15;100.00;90414.75;5055709;28;20051;-77
2023/07/06 03:50:52;;;;;;;3.47;3.17;;;;;;;14.13;100.00;90408.16;5055603;28;20021;-77
2023/07/06 03:53:21;;;;;;;3.97;3.20;;;;;;;14.13;100.00;90397.59;5055875;28;20498;-78
2023/07/06 03:55:47;;;;;;;5.68;3.80;;;;;;;14.10;100.00;90388.38;5055138;28;21509;-78
2023/07/06 03:58:12;;;;;;;3.42;3.20;;;;;;;14.09;100.00;90393.97;5055406;28;20485;-78
2023/07/06 04:00:38;;;;;;;3.45;3.22;;;;;;;14.04;100.00;90411.50;5066466;28;20107;-78
2023/07/06 04:03:04;;;;;;;3.65;3.35;;;;;;;14.03;100.00;90417.84;5045219;28;20099;-78
2023/07/06 04:05:37;;;;;;;3.70;3.45;;;;;;;14.02;100.00;90426.84;5059265;28;20025;-78
2023/07/06 04:08:08;;;;;;;3.40;3.20;;;;;;;14.02;100.00;90424.19;5055480;28;20044;-78
2023/07/06 04:10:34;;;;;;;4.38;3.97;;;;;;;14.03;100.00;90427.66;5054001;28;20098;-77
2023/07/06 04:13:00;;;;;;;3.75;3.22;;;;;;;14.01;100.00;90427.91;5054608;28;20032;-77
2023/07/06 04:15:25;;;;;;;7.95;7.25;;;;;;;14.02;100.00;90431.38;5054873;28;20047;-78
2023/07/06 04:17:52;;;;;;;8.38;7.57;;;;;;;14.05;100.00;90433.41;5055411;28;20110;-78
2023/07/06 04:20:26;;;;;;;4.75;4.35;;;;;;;13.99;100.00;90434.59;5054792;28;20837;-78
2023/07/06 04:22:57;;;;;;;4.13;3.83;;;;;;;13.97;100.00;90437.50;5047822;28;20021;-78
2023/07/06 04:25:33;;;;;;;4.13;3.70;;;;;;;13.98;100.00;90425.88;5042366;28;20033;-78
2023/07/06 04:28:02;;;;;;;4.20;3.78;;;;;;;14.00;100.00;90415.78;5050859;28;20091;-78
2023/07/06 04:30:29;;;;;;;5.35;3.65;;;;;;;14.04;100.00;90416.78;5055448;28;20028;-78
2023/07/06 04:32:55;;;;;;;4.00;3.70;;;;;;;14.10;100.00;90403.47;5053614;28;20036;-78
2023/07/06 04:35:22;;;;;;;3.58;3.28;;;;;;;14.07;100.00;90406.69;5051217;28;20025;-78
2023/07/06 04:37:49;;;;;;;4.38;4.07;;;;;;;14.11;100.00;90405.81;5045428;28;20055;-78
2023/07/06 04:40:18;;;;;;;3.70;3.40;;;;;;;14.12;100.00;90396.03;5055094;28;20509;-78
2023/07/06 04:42:46;;;;;;;4.45;3.50;;;;;;;14.13;100.00;90381.72;5054413;28;20033;-79
2023/07/06 04:45:13;;;;;;;3.70;3.40;;;;;;;14.14;100.00;90383.28;5054811;28;20511;-76
2023/07/06 04:47:39;;;;;;;3.65;3.45;;;;;;;14.17;100.00;90374.78;5054558;28;20503;-78
2023/07/06 04:50:09;;;;;;;6.97;4.03;;;;;;;14.14;100.00;90384.06;5054921;28;20448;-79
2023/07/06 04:52:37;;;;;;;4.65;3.92;;;;;;;14.11;100.00;90405.03;5054292;28;20092;-78
2023/07/06 04:55:06;;;;;;;4.38;3.97;;;;;;;14.16;100.00;90389.06;5052086;28;20776;-79
2023/07/06 04:57:31;;;;;;;5.63;3.72;;;;;;;14.17;100.00;90378.22;5054629;28;20044;-79
2023/07/06 04:59:57;;;;;;;3.67;3.38;;;;;;;14.13;100.00;90395.72;5060533;28;20020;-80
2023/07/06 05:02:25;;;;;;;5.90;3.40;;;;;;;14.02;100.00;90424.19;5048905;28;20048;-76
2023/07/06 05:04:51;;;;;;;4.40;3.70;;;;;;;14.00;100.00;90431.66;5063088;28;20032;-82
2023/07/06 05:07:18;;;;;;;5.90;3.78;;;;;;;14.03;100.00;90420.47;5056953;28;20020;-81
2023/07/06 05:09:47;;;;;;;3.70;3.40;;;;;;;14.12;100.00;90406.59;5055395;28;20486;-79
2023/07/06 05:12:13;;;;;;;4.00;3.58;;;;;;;14.21;100.00;90385.56;5053448;28;20108;-81
2023/07/06 05:14:39;;;;;;;6.50;4.13;;;;;;;14.30;100.00;90379.28;5054907;28;20057;-79
2023/07/06 05:17:04;;;;;;;4.32;3.92;;;;;;;14.41;100.00;90373.78;5054420;28;20021;-80
2023/07/06 05:19:30;;;;;;;4.10;3.80;;;;;;;14.52;100.00;90359.28;5054776;28;20050;-80
2023/07/06 05:21:57;;;;;;;4.25;3.92;;;;;;;14.61;100.00;90354.06;5054538;28;20059;-79
2023/07/06 05:24:25;;;;;;;3.75;3.42;;;;;;;14.72;100.00;90354.66;5054407;28;20470;-79
2023/07/06 05:26:50;;;;;;;5.93;4.00;;;;;;;14.76;100.00;90368.84;5057030;28;20085;-80
2023/07/06 05:29:16;;;;;;;4.05;3.75;;;;;;;14.80;100.00;90382.25;5045284;28;20458;-80
2023/07/06 05:31:43;;;;;;;3.97;3.67;;;;;;;14.91;100.00;90380.97;5053665;28;20116;-80
2023/07/06 05:34:08;;;;;;;4.30;3.88;;;;;;;14.90;100.00;90396.06;5053661;28;20552;-80
2023/07/06 05:36:36;;;;;;;6.53;4.05;;;;;;;14.98;100.00;90410.44;5052004;28;20106;-79
2023/07/06 05:39:05;;;;;;;5.47;3.53;;;;;;;15.09;100.00;90421.59;5049332;28;20033;-76
2023/07/06 05:41:31;;;;;;;4.15;3.85;;;;;;;15.20;100.00;90442.56;5044949;28;20021;-76
2023/07/06 05:43:56;;;;;;;3.78;3.47;;;;;;;15.33;100.00;90463.72;5047064;28;20527;-77
2023/07/06 05:46:23;;;;;;;3.88;3.58;;;;;;;15.46;100.00;90507.16;5053894;28;20028;-74
2023/07/06 05:48:49;;;;;;;4.60;3.75;;;;;;;15.56;100.00;90545.88;5052391;28;20045;-76
2023/07/06 05:51:15;;;;;;;3.90;3.60;;;;;;;15.67;100.00;90602.09;5051866;28;20085;-79
2023/07/06 05:53:40;;;;;;;3.42;3.22;;;;;;;15.76;100.00;90708.22;5053776;28;20401;-77
2023/07/06 05:56:06;;;;;;;3.53;3.22;;;;;;;15.85;100.00;90801.09;5052690;28;20033;-79
2023/07/06 05:58:32;;;;;;;3.70;3.40;;;;;;;15.95;100.00;90899.03;5042003;28;20116;-78
2023/07/06 06:00:59;;;;;;;3.50;3.25;;;;;;;16.09;100.00;90980.50;5030012;28;20022;-78
2023/07/06 06:03:25;;;;;;;5.15;3.45;;;;;;;16.22;100.00;91039.97;5052800;28;20095;-80
2023/07/06 06:05:52;;;;;;;4.43;3.42;;;;;;;16.36;100.00;91120.41;5062969;28;20009;-77
2023/07/06 06:08:18;;;;;;;3.53;3.10;;;;;;;16.48;100.00;91181.00;5053183;28;20421;-79
2023/07/06 06:10:44;;;;;;;3.67;3.38;;;;;;;16.49;100.00;91279.97;5053774;28;20024;-81
2023/07/06 06:13:10;;;;;;;5.50;3.85;;;;;;;16.54;100.00;91370.16;5052089;28;20025;-75
2023/07/06 06:15:36;;;;;;;4.28;3.42;;;;;;;16.53;100.00;91456.97;5050480;28;20033;-78
2023/07/06 06:18:02;;;;;;;3.67;3.45;;;;;;;16.54;100.00;91553.31;5053918;28;20025;-79
2023/07/06 06:20:28;;;;;;;3.70;3.40;;;;;;;16.63;100.00;91619.88;5044486;28;20079;-79
2023/07/06 06:22:54;;;;;;;3.40;3.20;;;;;;;16.66;100.00;91744.94;5046792;28;20033;-79
2023/07/06 06:25:19;;;;;;;3.55;3.25;;;;;;;16.81;100.00;91836.97;5053439;28;20603;-79
2023/07/06 06:27:46;;;;;;;3.70;3.40;;;;;;;16.90;100.00;91999.22;5055728;28;20029;-79
2023/07/06 06:30:14;;;;;;;3.30;3.10;;;;;;;17.08;100.00;92164.47;5045620;28;20397;-79
2023/07/06 06:32:40;;;;;;;3.53;3.22;;;;;;;17.29;100.00;92312.22;5047499;28;20033;-79
2023/07/06 06:35:22;;;;;;;5.03;3.17;;;;;;;17.50;100.00;92412.44;5052394;28;20017;-80
2023/07/06 06:37:48;;;;;;;3.20;2.90;;;;;;;17.70;100.00;92470.19;5055879;28;20508;-80
2023/07/06 06:40:14;;;;;;;3.22;3.03;;;;;;;17.85;100.00;92530.59;5057243;28;20152;-80
2023/07/06 06:42:40;;;;;;;5.75;3.22;;;;;;;18.03;100.00;92633.91;5056611;28;20100;-80
2023/07/06 06:45:07;;;;;;;3.47;2.90;;;;;;;18.30;100.00;92760.69;5057290;28;20061;-80
2023/07/06 06:47:32;;;;;;;3.88;3.10;;;;;;;18.51;100.00;92861.16;5055070;28;20040;-80
2023/07/06 06:49:58;;;;;;;5.82;3.40;;;;;;;18.75;100.00;93010.75;5051673;28;20028;-80
2023/07/06 06:52:25;;;;;;;3.45;3.13;;;;;;;18.94;100.00;93146.25;5056912;28;20013;-81
2023/07/06 06:54:53;;;;;;;10.38;2.85;;;;;;;19.19;100.00;93238.97;5056820;28;20056;-81
2023/07/06 06:57:20;;;;;;;3.65;2.97;;;;;;;19.50;100.00;93321.06;5056563;28;20393;-81
2023/07/06 06:59:50;;;;;;;3.15;2.97;;;;;;;19.76;100.00;93376.22;5056562;28;20024;-81
2023/07/06 07:02:16;;;;;;;4.68;2.83;;;;;;;20.08;100.00;93489.44;5056780;28;20024;-81
2023/07/06 07:04:41;;;;;;;5.82;2.88;;;;;;;19.99;100.00;93598.59;5058309;28;20104;-81
2023/07/06 07:07:07;;;;;;;3.25;3.05;;;;;;;20.11;100.00;93637.69;5052961;28;20457;-81
2023/07/06 07:09:33;;;;;;;3.17;2.88;;;;;;;20.39;100.00;93606.44;5056723;28;20024;-81
2023/07/06 07:11:59;;;;;;;3.28;2.97;;;;;;;20.98;100.00;93588.69;5051884;28;20037;-80
2023/07/06 07:14:25;;;;;;;3.17;2.88;;;;;;;21.34;100.00;93658.47;5050932;28;20082;-82
2023/07/06 07:16:50;;;;;;;3.15;2.88;;;;;;;21.54;100.00;93747.97;5056955;28;20021;-81
2023/07/06 07:19:15;;;;;;;3.78;3.00;;;;;;;21.79;100.00;93767.97;5048691;28;20021;-81
2023/07/06 07:21:41;;;;;;;3.13;2.67;;;;;;;22.16;100.00;93834.88;5051370;28;20028;-80
2023/07/06 07:24:08;;;;;;;3.35;3.05;;;;;;;22.34;100.00;93923.94;5054914;28;20025;-81
2023/07/06 07:26:34;;;;;;;3.42;2.80;;;;;;;22.47;100.00;93995.09;5057590;28;20029;-81
2023/07/06 07:28:59;;;;;;;3.35;2.97;;;;;;;22.30;100.00;94038.06;5035091;28;20032;-80
2023/07/06 07:31:26;;;;;;;2.70;2.50;;;;;;;;;;5054221;28;20445;-81
2023/07/06 07:33:52;;;;;;;2.95;2.75;;;;;;;22.67;100.00;94053.41;5053631;28;20055;-81
2023/07/06 07:36:19;;;;;;;3.08;2.88;;;;;;;22.83;100.00;94104.47;5054841;28;20052;-80
2023/07/06 07:38:46;;;;;;;3.05;2.75;;;;;;;23.06;100.00;94140.03;5053708;28;20068;-81
2023/07/06 07:41:13;;;;;;;4.28;2.95;;;;;;;23.27;100.00;94197.38;5055521;28;20031;-81
2023/07/06 07:43:42;;;;;;;2.90;2.70;;;;;;;23.60;100.00;94230.34;5055821;28;20032;-81
2023/07/06 07:46:10;;;;;;;6.40;2.92;;;;;;;23.82;100.00;94250.88;5035771;28;20030;-80
2023/07/06 07:48:38;;;;;;;2.63;2.42;;;;;;;23.67;100.00;94330.28;5047980;28;20031;-81
2023/07/06 07:51:07;;;;;;;2.78;2.35;;;;;;;23.80;100.00;94331.72;5054800;28;20035;-81
2023/07/06 07:53:35;;;;;;;2.80;2.60;;;;;;;23.64;100.00;94370.28;5056049;28;20036;-81
2023/07/06 07:56:01;;;;;;;2.50;2.30;;;;;;;23.62;100.00;94367.88;5055689;28;20461;-81
2023/07/06 07:58:27;;;;;;;2.63;2.45;;;;;;;23.98;100.00;94346.59;5042403;28;20029;-81
2023/07/06 08:00:57;;;;;;;2.47;2.38;;;;;;;23.99;100.00;94428.88;5062277;28;20374;-80
2023/07/06 08:03:27;;;;;;;2.70;2.50;;;;;;;23.91;100.00;94455.41;5066540;28;20021;-80
2023/07/06 08:05:57;;;;;;;2.40;2.30;;;;;;;24.15;100.00;94462.09;5082062;28;20075;-80
2023/07/06 08:08:23;;;;;;;3.03;2.80;;;;;;;24.50;100.00;94476.03;5038881;28;20505;-80
2023/07/06 08:10:51;;;;;;;2.65;2.45;;;;;;;24.75;100.00;94483.44;5043535;28;20027;-81
2023/07/06 08:13:18;;;;;;;2.80;2.67;;;;;;;24.78;100.00;94511.72;5056224;28;20032;-81
2023/07/06 08:15:46;;;;;;;2.60;2.38;;;;;;;24.97;100.00;94512.09;5050575;28;20032;-81
2023/07/06 08:18:13;;;;;;;2.72;2.53;;;;;;;24.87;100.00;94537.09;5055752;28;20018;-81
2023/07/06 08:20:38;;;;;;;3.10;2.90;;;;;;;24.29;100.00;94465.13;5055534;28;20021;-81
2023/07/06 08:23:10;;;;;;;2.80;2.60;;;;;;;25.36;100.00;94445.44;5037486;28;20108;-80
2023/07/06 08:25:37;;;;;;;3.72;2.60;;;;;;;25.83;100.00;94536.09;5055569;28;20100;-80
2023/07/06 08:28:12;;;;;;;2.50;2.30;;;;;;;25.48;100.00;94582.63;5054373;28;20045;-80
2023/07/06 08:30:42;;;;;;;2.53;2.33;;;;;;;25.77;100.00;94598.38;5054488;28;20029;-80
2023/07/06 08:33:11;;;;;;;2.72;2.53;;;;;;;25.82;100.00;94647.69;5053195;28;20075;-80
2023/07/06 08:35:44;;;;;;;3.08;2.35;;;;;;;25.96;100.00;94680.34;5054447;28;20025;-80
2023/07/06 08:38:10;;;;;;;2.67;2.50;;;;;;;26.28;100.00;94711.78;5055231;28;20071;-80
2023/07/06 08:40:37;;;;;;;2.83;2.47;;;;;;;26.34;100.00;94784.63;5052296;28;20047;-81
2023/07/06 08:43:07;;;;;;;2.58;2.13;;;;;;;26.45;100.00;94768.22;5054525;28;20025;-80
2023/07/06 08:45:40;;;;;;;2.53;2.33;;;;;;;26.27;100.00;94791.09;5053190;28;20420;-80
2023/07/06 08:48:09;;;;;;;2.20;2.10;;;;;;;26.58;100.00;94796.59;5050462;28;20029;-80
2023/07/06 08:50:36;;;;;;;2.30;2.20;;;;;;;26.82;100.00;94752.09;5054923;28;20132;-81
2023/07/06 08:53:09;;;;;;;2.50;2.30;;;;;;;27.00;100.00;94834.50;5054375;28;20021;-80
2023/07/06 08:55:36;;;;;;;2.83;2.50;;;;;;;26.47;100.00;94886.69;5054440;28;20067;-80
2023/07/06 08:58:03;;;;;;;2.75;2.50;;;;;;;26.35;100.00;94848.31;5051620;28;20401;-80
2023/07/06 09:00:31;;;;;;;2.67;2.40;;;;;;;26.17;100.00;94818.00;5052695;28;20032;-80
2023/07/06 09:03:09;;;;;;;2.58;2.40;;;;;;;25.99;100.00;94647.50;5048151;28;20062;-80
2023/07/06 09:05:38;;;;;;;2.42;2.30;;;;;;;26.40;100.00;94606.34;5063169;28;20025;-80
2023/07/06 09:08:04;;;;;;;2.90;2.60;;;;;;;26.59;100.00;94546.44;5053145;28;20109;-80
2023/07/06 09:10:30;;;;;;;2.97;2.50;;;;;;;26.30;100.00;94641.38;5041040;28;20028;-80
2023/07/06 09:13:13;;;;;;;2.60;2.40;;;;;;;26.52;100.00;94651.94;5054638;28;20028;-80
2023/07/06 09:15:38;;;;;;;2.25;2.15;;;;;;;26.73;100.00;94711.34;5050534;28;20436;-80
2023/07/06 09:18:04;;;;;;;2.60;2.40;;;;;;;26.40;100.00;94727.72;5054345;28;20016;-80
2023/07/06 09:20:33;;;;;;;2.55;2.35;;;;;;;26.46;100.00;94688.88;5054218;28;20098;-80
2023/07/06 09:23:00;;;;;;;2.67;2.33;;;;;;;26.53;100.00;94688.63;5044856;28;20460;-81
2023/07/06 09:25:28;;;;;;;3.63;2.10;;;;;;;26.69;100.00;94672.47;5054362;28;20040;-81
2023/07/06 09:27:56;;;;;;;2.22;2.13;;;;;;;26.62;100.00;94639.50;5051196;28;20022;-80
2023/07/06 09:30:30;;;;;;;2.67;2.47;;;;;;;26.95;100.00;94632.00;5053939;28;20024;-79
2023/07/06 09:33:17;;;;;;;2.25;2.15;;;;;;;26.62;100.00;94650.31;5052552;28;20455;-81
2023/07/06 09:35:50;;;;;;;4.40;2.30;;;;;;;26.71;100.00;94602.81;5054077;28;20017;-80
2023/07/06 09:38:16;;;;;;;2.55;2.45;;;;;;;26.61;100.00;94592.84;5053808;28;20029;-81
2023/07/06 09:40:43;;;;;;;4.20;2.50;;;;;;;26.80;100.00;94603.88;5053800;28;20021;-80
2023/07/06 09:43:28;;;;;;;2.60;2.45;;;;;;;27.02;100.00;94627.94;5028521;28;20037;-80
2023/07/06 09:45:55;;;;;;;2.47;2.28;;;;;;;27.22;100.00;94590.34;5054154;28;20024;-81
2023/07/06 09:48:27;;;;;;;4.85;2.50;;;;;;;27.52;100.00;94638.09;5052174;28;20505;-82
2023/07/06 09:50:59;;;;;;;3.55;2.08;;;;;;;27.07;100.00;94673.00;5053808;28;20032;-81
2023/07/06 09:53:36;;;;;;;3.75;2.50;;;;;;;27.39;100.00;94633.25;5047139;28;20045;-80
2023/07/06 09:56:03;;;;;;;2.70;2.50;;;;;;;26.54;100.00;94662.47;5047496;28;20101;-80
2023/07/06 09:58:30;;;;;;;2.65;2.45;;;;;;;27.11;100.00;94612.00;5046685;28;20297;-81
2023/07/06 10:01:03;;;;;;;2.38;2.17;;;;;;;27.17;100.00;94664.91;5058600;28;20084;-80
2023/07/06 10:03:49;;;;;;;4.13;2.20;;;;;;;26.80;100.00;94670.59;5051924;28;20028;-80
2023/07/06 10:06:21;;;;;;;4.07;2.78;;;;;;;26.95;100.00;94635.47;5061334;28;20556;-79
2023/07/06 10:09:04;;;;;;;2.85;2.65;;;;;;;26.91;100.00;94644.41;5053296;28;20029;-80
2023/07/06 10:11:53;;;;;;;4.43;2.33;;;;;;;27.28;100.00;94630.59;5057207;28;20029;-80
2023/07/06 10:14:32;;;;;;;3.20;2.33;;;;;;;28.08;100.00;94614.63;5050191;28;20028;-80
2023/07/06 10:17:29;;;;;;;2.70;2.50;;;;;;;28.10;100.00;94608.91;5055969;28;20021;-80
2023/07/06 10:20:03;;;;;;;3.97;2.53;;;;;;;27.89;100.00;94614.44;5057641;28;20098;-80
2023/07/06 10:22:55;;;;;;;3.95;2.40;;;;;;;28.29;100.00;94590.13;5056936;28;20047;-79
2023/07/06 10:25:42;;;;;;;2.10;2.00;;;;;;;27.46;100.00;94623.75;5043433;28;20473;-80
2023/07/06 10:28:18;;;;;;;3.08;2.20;;;;;;;27.82;100.00;94614.72;5059053;28;20029;-80
2023/07/06 10:30:49;;;;;;;2.38;2.28;;;;;;;27.77;100.00;94609.34;5057544;28;20064;-80
2023/07/06 10:33:28;;;;;;;2.83;2.30;;;;;;;27.98;100.00;94523.53;5048196;28;20021;-80
2023/07/06 10:35:54;;;;;;;3.55;2.35;;;;;;;28.27;100.00;94484.91;5055866;28;20075;-80
2023/07/06 10:38:20;;;;;;;2.72;2.53;;;;;;;28.33;100.00;94438.88;5056829;28;20473;-79
2023/07/06 10:40:51;;;;;;;2.97;2.30;;;;;;;28.20;100.00;94411.41;5054607;28;20024;-79
2023/07/06 10:43:18;;;;;;;7.13;2.67;;;;;;;28.40;100.00;94387.91;5056925;28;20028;-79
2023/07/06 10:45:46;;;;;;;4.13;2.10;;;;;;;28.64;100.00;94354.66;5057344;28;20106;-80
2023/07/06 10:48:28;;;;;;;5.50;2.10;;;;;;;28.63;100.00;94323.25;5057393;28;20031;-80
2023/07/06 10:51:13;;;;;;;2.17;2.00;;;;;;;28.77;100.00;94291.66;5055827;28;20074;-80
2023/07/06 10:53:41;;;;;;;3.53;2.00;;;;;;;28.68;100.00;94272.53;5056254;28;20225;-82
2023/07/06 10:56:20;;;;;;;2.95;2.47;;;;;;;28.60;100.00;94278.63;5039170;28;20076;-80
2023/07/06 10:58:57;;;;;;;4.57;2.33;;;;;;;28.58;100.00;94243.72;5057347;28;20013;-80
2023/07/06 11:01:31;;;;;;;2.35;2.25;;;;;;;28.79;100.00;94218.28;5052302;28;20063;-80
2023/07/06 11:03:57;;;;;;;2.47;2.28;;;;;;;28.02;100.00;94204.63;5064166;28;20025;-80
2023/07/06 11:06:41;;;;;;;5.18;2.17;;;;;;;28.37;100.00;94175.56;5070288;28;20024;-80
2023/07/06 11:09:16;;;;;;;3.60;2.40;;;;;;;29.06;100.00;94135.53;5055825;28;20052;-80
2023/07/06 11:12:03;;;;;;;2.85;2.35;;;;;;;29.07;100.00;94108.16;5051876;28;20790;-80
2023/07/06 11:14:38;;;;;;;3.35;2.20;;;;;;;28.85;100.00;94076.31;5051438;28;20055;-79
2023/07/06 11:17:22;;;;;;;3.80;2.30;;;;;;;29.01;100.00;94053.28;5037929;28;20029;-80
2023/07/06 11:20:16;;;;;;;2.22;2.13;;;;;;;28.69;100.00;94005.38;5055351;28;20517;-80
2023/07/06 11:22:44;;;;;;;3.42;2.20;;;;;;;28.95;100.00;93989.47;5052843;28;20473;-80
2023/07/06 11:25:13;;;;;;;2.25;2.15;;;;;;;28.94;100.00;93962.69;5056610;28;20033;-80
2023/07/06 11:27:44;;;;;;;2.47;2.20;;;;;;;29.65;100.00;93945.28;5053125;28;20109;-79
2023/07/06 11:30:22;;;;;;;3.67;2.35;;;;;;;29.77;100.00;93950.16;5049751;28;20395;-80
2023/07/06 11:33:06;;;;;;;3.53;2.10;;;;;;;29.99;100.00;93960.22;5056170;28;20024;-80
2023/07/06 11:35:41;;;;;;;2.88;2.17;;;;;;;29.50;100.00;93901.13;5056112;28;20480;-79
2023/07/06 11:38:28;;;;;;;2.13;2.03;;;;;;;29.56;100.00;93574.66;5053368;28;20080;-78
2023/07/06 11:41:11;;;;;;;3.17;2.10;;;;;;;29.76;100.00;93593.38;5056309;28;20029;-80